Time;durP1;ratioP1;P1;durP2;ratioP2;P2;SDS_P1;SDS_P2;PMS_P1;PMS_P2;Temp;Humidity;BMP_temperature;BMP_pressure;BME280_temperature;BME280_humidity;BME280_pressure;Samples;Min_cycle;Max_cycle;Signal;HPM_P1;HPM_P2
2023/06/13 00:01:13;;;;;;;4.47;3.90;;;;;;;20.93;34.53;99835.19;4972267;28;20076;-79
2023/06/13 00:03:40;;;;;;;5.03;3.63;;;;;;;20.91;34.20;99841.69;4972444;28;20074;-80
2023/06/13 00:06:08;;;;;;;4.90;3.83;;;;;;;20.87;34.48;99842.94;4956614;28;20125;-79
2023/06/13 00:08:35;;;;;;;5.80;4.45;;;;;;;20.84;34.54;99838.75;4953051;29;20051;-78
2023/06/13 00:11:02;;;;;;;4.80;3.75;;;;;;;20.81;34.49;99839.03;4953165;29;20404;-78
2023/06/13 00:13:28;;;;;;;6.68;3.70;;;;;;;20.78;34.80;99840.19;4953141;29;20191;-78
2023/06/13 00:15:58;;;;;;;6.25;4.20;;;;;;;20.75;35.42;99843.16;4964205;28;20046;-79
2023/06/13 00:18:29;;;;;;;5.03;3.85;;;;;;;20.73;34.90;99839.81;4971540;28;20054;-79
2023/06/13 00:20:58;;;;;;;9.77;4.10;;;;;;;20.69;34.84;99838.44;4952956;28;20057;-78
2023/06/13 00:23:26;;;;;;;7.43;4.20;;;;;;;20.65;35.41;99843.25;4936098;29;20380;-78
2023/06/13 00:25:53;;;;;;;5.63;3.72;;;;;;;20.60;35.22;99842.03;4961314;28;20121;-79
2023/06/13 00:28:20;;;;;;;6.72;3.88;;;;;;;20.56;35.33;99838.81;4972135;28;20082;-79
2023/06/13 00:30:46;;;;;;;6.10;3.47;;;;;;;20.52;35.51;99834.75;4972096;28;20422;-79
2023/06/13 00:33:17;;;;;;;6.05;4.00;;;;;;;20.48;35.94;99841.41;4972179;28;20059;-79
2023/06/13 00:35:44;;;;;;;4.80;3.63;;;;;;;20.46;35.88;99838.88;4967970;28;20055;-79
2023/06/13 00:38:12;;;;;;;5.65;3.97;;;;;;;20.46;35.90;99838.88;4952462;29;20506;-79
2023/06/13 00:40:39;;;;;;;4.95;3.60;;;;;;;20.44;36.55;99839.00;4953530;28;20082;-79
2023/06/13 00:43:07;;;;;;;4.88;3.80;;;;;;;20.43;36.37;99833.81;4957570;29;20148;-78
2023/06/13 00:45:34;;;;;;;6.03;4.43;;;;;;;20.43;36.75;99837.34;4948858;28;20055;-79
2023/06/13 00:48:05;;;;;;;6.20;3.88;;;;;;;20.40;37.14;99834.97;4975482;28;20054;-79
2023/06/13 00:50:34;;;;;;;5.10;3.65;;;;;;;20.42;36.96;99832.13;4973769;28;20781;-79
2023/06/13 00:53:08;;;;;;;6.57;3.85;;;;;;;20.40;36.39;99842.13;4969520;28;20058;-78
2023/06/13 00:55:36;;;;;;;5.95;3.88;;;;;;;20.36;35.84;99832.72;4955166;29;20051;-79
2023/06/13 00:58:06;;;;;;;5.28;3.78;;;;;;;20.34;35.96;99846.25;4971477;28;20133;-79
2023/06/13 01:00:40;;;;;;;5.32;3.78;;;;;;;20.27;36.33;99848.69;4975531;28;20125;-79
2023/06/13 01:03:09;;;;;;;6.57;4.00;;;;;;;20.29;36.07;99851.19;4973106;28;20479;-78
2023/06/13 01:05:38;;;;;;;6.65;4.05;;;;;;;20.29;36.33;99841.34;4973315;28;20055;-78
2023/06/13 01:08:08;;;;;;;4.85;4.28;;;;;;;20.28;36.85;99845.03;4958597;28;20130;-79
2023/06/13 01:10:36;;;;;;;5.78;3.97;;;;;;;20.28;36.20;99855.72;4973696;28;20073;-79
2023/06/13 01:13:18;;;;;;;5.47;4.28;;;;;;;20.26;36.35;99846.16;4970603;28;20094;-79
2023/06/13 01:16:02;;;;;;;6.90;4.35;;;;;;;20.18;36.37;99850.41;4929483;29;20051;-78
2023/06/13 01:18:33;;;;;;;5.93;4.60;;;;;;;20.17;36.45;99854.06;4955337;29;20118;-79
2023/06/13 01:21:00;;;;;;;4.63;4.13;;;;;;;20.14;36.32;99842.81;4957440;28;20071;-79
2023/06/13 01:23:41;;;;;;;9.10;4.43;;;;;;;20.04;36.59;99845.56;4938561;29;20506;-79
2023/06/13 01:26:20;;;;;;;6.18;4.45;;;;;;;20.02;36.70;99848.38;4955579;29;20127;-78
2023/06/13 01:28:53;;;;;;;7.63;4.60;;;;;;;20.00;36.62;99847.66;4938562;29;20051;-79
2023/06/13 01:31:22;;;;;;;;;;;;;;;19.97;35.30;99847.09;4956519;28;20062;-78
2023/06/13 01:33:51;;;;;;;5.63;4.25;;;;;;;19.98;36.48;99844.31;4955994;29;19923;-79
2023/06/13 01:36:19;;;;;;;5.63;4.63;;;;;;;19.93;36.34;99855.41;4938422;29;20062;-78
2023/06/13 01:38:47;;;;;;;6.15;4.75;;;;;;;19.88;36.67;99854.16;4954150;29;20047;-79
2023/06/13 01:41:13;;;;;;;5.35;4.60;;;;;;;19.82;36.69;99846.72;4968320;28;20501;-79
2023/06/13 01:43:40;;;;;;;7.35;4.72;;;;;;;19.77;36.79;99841.81;4957867;28;20082;-78
2023/06/13 01:46:21;;;;;;;5.10;4.55;;;;;;;19.68;37.58;99848.88;4974446;28;20065;-79
2023/06/13 01:49:09;;;;;;;7.90;4.97;;;;;;;19.62;37.32;99842.28;4974573;28;20082;-79
2023/06/13 01:51:51;;;;;;;6.85;4.60;;;;;;;19.58;37.63;99832.06;4955606;28;20443;-79
2023/06/13 01:54:22;;;;;;;6.55;4.90;;;;;;;19.55;37.84;99837.66;4974179;28;20054;-79
2023/06/13 01:56:56;;;;;;;6.32;4.75;;;;;;;19.47;37.93;99841.91;4956945;28;20062;-79
2023/06/13 01:59:25;;;;;;;6.68;4.15;;;;;;;19.45;38.10;99843.03;4972760;28;20047;-78
2023/06/13 02:01:54;;;;;;;8.27;4.75;;;;;;;19.40;37.59;99844.28;4957375;28;20047;-79
2023/06/13 02:04:21;;;;;;;7.68;5.00;;;;;;;19.36;37.86;99840.22;4974312;28;20050;-79
2023/06/13 02:06:47;;;;;;;8.73;4.85;;;;;;;19.33;37.98;99839.69;4973914;28;20050;-78
2023/06/13 02:09:14;;;;;;;8.02;4.80;;;;;;;19.29;37.80;99832.94;4964349;28;20099;-79
2023/06/13 02:11:41;;;;;;;5.82;4.75;;;;;;;19.26;37.95;99839.41;4938056;29;20059;-79
2023/06/13 02:14:08;;;;;;;5.00;4.28;;;;;;;19.22;38.30;99833.50;4954847;29;20055;-78
2023/06/13 02:16:39;;;;;;;7.90;4.78;;;;;;;19.21;38.47;99834.47;4954660;29;20054;-79
2023/06/13 02:19:07;;;;;;;5.25;4.75;;;;;;;19.20;38.44;99831.97;4960130;28;20050;-78
2023/06/13 02:21:34;;;;;;;9.05;4.85;;;;;;;19.18;38.66;99829.47;4956768;28;20062;-79
2023/06/13 02:24:00;;;;;;;8.30;4.93;;;;;;;19.14;38.35;99826.22;4973804;28;20097;-78
2023/06/13 02:26:28;;;;;;;6.85;4.93;;;;;;;19.11;38.48;99823.81;4973951;28;20111;-78
2023/06/13 02:28:57;;;;;;;8.35;5.03;;;;;;;19.07;38.58;99829.59;4972224;28;20109;-79
2023/06/13 02:31:24;;;;;;;5.80;4.57;;;;;;;19.03;38.46;99813.00;4954673;29;20066;-79
2023/06/13 02:33:51;;;;;;;6.35;4.85;;;;;;;18.99;38.75;99824.94;4954431;29;20055;-79
2023/06/13 02:36:18;;;;;;;7.00;4.95;;;;;;;18.93;38.73;99822.81;4937330;29;20051;-79
2023/06/13 02:38:44;;;;;;;8.18;4.68;;;;;;;18.87;39.31;99819.72;4954220;29;20047;-79
2023/06/13 02:41:11;;;;;;;5.38;4.70;;;;;;;18.83;39.09;99821.00;4969811;28;20054;-78
2023/06/13 02:43:38;;;;;;;6.63;5.10;;;;;;;18.80;39.73;99815.09;4973724;28;20133;-79
2023/06/13 02:46:06;;;;;;;6.00;4.72;;;;;;;18.78;39.96;99819.72;4973398;28;20093;-79
2023/06/13 02:48:33;;;;;;;8.27;4.88;;;;;;;18.74;39.70;99821.84;4956107;28;20058;-79
2023/06/13 02:51:00;;;;;;;7.38;4.95;;;;;;;18.72;39.53;99821.13;4959583;28;20054;-79
2023/06/13 02:53:27;;;;;;;5.68;4.88;;;;;;;18.69;39.49;99816.09;4954224;29;20059;-79
2023/06/13 02:55:54;;;;;;;8.63;5.30;;;;;;;18.66;39.87;99814.53;4953965;29;20476;-79
2023/06/13 02:58:21;;;;;;;7.32;4.75;;;;;;;18.63;40.01;99817.47;4954035;29;20047;-79
2023/06/13 03:00:48;;;;;;;9.13;5.07;;;;;;;18.61;40.18;99814.09;4958370;28;20057;-78
2023/06/13 03:03:16;;;;;;;10.25;5.20;;;;;;;18.58;40.14;99817.88;4963136;28;20121;-78
2023/06/13 03:05:47;;;;;;;17.13;5.70;;;;;;;18.57;40.09;99824.19;4962771;28;20055;-79
2023/06/13 03:08:18;;;;;;;11.18;4.85;;;;;;;18.55;40.12;99820.84;4952861;29;20055;-80
2023/06/13 03:10:45;;;;;;;7.78;5.00;;;;;;;18.54;40.73;99818.31;4957466;28;20049;-78
2023/06/13 03:13:11;;;;;;;7.90;4.70;;;;;;;18.53;40.79;99825.44;4956123;28;20395;-79
2023/06/13 03:15:38;;;;;;;7.00;4.80;;;;;;;18.51;40.78;99824.75;4955680;28;20050;-79
2023/06/13 03:18:05;;;;;;;9.38;4.78;;;;;;;18.51;40.79;99823.91;4972674;28;20046;-79
2023/06/13 03:20:33;;;;;;;11.10;5.30;;;;;;;18.49;40.73;99824.03;4955490;28;20050;-79
2023/06/13 03:22:59;;;;;;;5.93;4.78;;;;;;;18.48;41.04;99819.69;4972833;28;20055;-78
2023/06/13 03:25:26;;;;;;;9.25;5.32;;;;;;;18.48;41.20;99820.56;4972688;28;20050;-79
2023/06/13 03:27:53;;;;;;;12.65;5.30;;;;;;;18.48;41.49;99828.53;4972845;28;20050;-79
2023/06/13 03:30:19;;;;;;;7.20;4.90;;;;;;;18.49;41.08;99824.03;4955563;28;20121;-78
2023/06/13 03:32:46;;;;;;;6.60;5.22;;;;;;;18.49;40.88;99826.72;4958021;28;20106;-79
2023/06/13 03:35:13;;;;;;;9.95;5.50;;;;;;;18.49;40.92;99826.72;4953353;29;20059;-79
2023/06/13 03:37:40;;;;;;;7.45;5.10;;;;;;;18.49;41.17;99821.38;4953330;29;20067;-79
2023/06/13 03:40:07;;;;;;;7.40;5.18;;;;;;;18.49;41.26;99822.22;4953342;29;20441;-78
2023/06/13 03:42:33;;;;;;;6.63;5.65;;;;;;;18.50;41.11;99825.72;4963194;28;20074;-79
2023/06/13 03:45:00;;;;;;;6.80;5.45;;;;;;;18.49;41.44;99824.03;4972632;28;20646;-78
2023/06/13 03:47:27;;;;;;;11.23;5.53;;;;;;;18.48;41.75;99822.34;4972587;28;20376;-79
2023/06/13 03:49:54;;;;;;;9.55;5.63;;;;;;;18.46;41.62;99827.81;4955598;28;20051;-78
2023/06/13 03:52:20;;;;;;;7.68;5.55;;;;;;;18.45;41.43;99825.28;4966912;28;20047;-79
2023/06/13 03:54:47;;;;;;;9.57;5.13;;;;;;;18.41;41.43;99818.56;4953005;29;20059;-79
2023/06/13 03:57:14;;;;;;;7.55;5.40;;;;;;;18.40;41.71;99823.06;4952961;29;20062;-79
2023/06/13 03:59:42;;;;;;;6.03;5.25;;;;;;;18.38;41.96;99824.19;4953030;29;20075;-79
2023/06/13 04:02:08;;;;;;;6.28;5.45;;;;;;;18.37;41.80;99823.31;4954827;28;20118;-79
2023/06/13 04:04:36;;;;;;;6.50;5.13;;;;;;;18.35;42.07;99826.13;4954247;28;20051;-79
2023/06/13 04:07:05;;;;;;;6.95;5.32;;;;;;;18.34;42.35;99828.91;4952663;29;20094;-79
2023/06/13 04:09:32;;;;;;;5.78;5.03;;;;;;;18.33;42.36;99833.41;4953062;29;20067;-78
2023/06/13 04:11:58;;;;;;;7.13;5.28;;;;;;;18.32;42.38;99834.38;4951778;29;20504;-79
2023/06/13 04:14:25;;;;;;;6.63;5.45;;;;;;;18.32;42.67;99830.88;4965584;28;20050;-79
2023/06/13 04:16:52;;;;;;;10.68;5.50;;;;;;;18.31;42.63;99829.19;4975064;28;20554;-78
2023/06/13 04:19:19;;;;;;;7.95;5.10;;;;;;;18.31;42.67;99832.69;4959037;28;20049;-79
2023/06/13 04:21:47;;;;;;;5.88;4.88;;;;;;;18.32;42.74;99834.38;4971051;28;20059;-79
2023/06/13 04:24:17;;;;;;;5.97;5.03;;;;;;;18.31;42.77;99830.03;4943802;29;20415;-79
2023/06/13 04:26:46;;;;;;;8.27;5.20;;;;;;;18.31;42.54;99835.38;4968955;28;20126;-80
2023/06/13 04:29:15;;;;;;;8.02;5.18;;;;;;;18.32;42.59;99834.38;4959115;28;20051;-78
2023/06/13 04:31:43;;;;;;;7.60;5.35;;;;;;;18.33;43.09;99836.09;4974020;28;20050;-79
2023/06/13 04:34:11;;;;;;;7.30;5.20;;;;;;;18.35;43.28;99828.78;4955620;29;20507;-79
2023/06/13 04:36:41;;;;;;;7.25;4.95;;;;;;;18.39;43.19;99837.34;4956344;29;20142;-79
2023/06/13 04:39:08;;;;;;;8.05;5.20;;;;;;;18.44;42.85;99844.94;4956396;28;20055;-80
2023/06/13 04:41:37;;;;;;;9.25;5.20;;;;;;;18.44;43.46;99840.47;4956716;28;20054;-79
2023/06/13 04:44:10;;;;;;;7.47;5.88;;;;;;;18.48;43.53;99835.69;4957516;28;20062;-79
2023/06/13 04:46:43;;;;;;;7.63;4.82;;;;;;;18.50;43.51;99833.72;4958602;28;20042;-79
2023/06/13 04:49:10;;;;;;;8.57;5.28;;;;;;;18.56;43.40;99833.19;4975768;28;20066;-79
2023/06/13 04:51:37;;;;;;;6.05;4.85;;;;;;;18.58;43.51;99825.06;4975546;28;20039;-79
2023/06/13 04:54:09;;;;;;;10.90;5.80;;;;;;;18.62;43.54;99826.47;4959915;28;20051;-78
2023/06/13 04:56:37;;;;;;;8.65;5.07;;;;;;;18.67;43.48;99828.69;4956226;29;20114;-79
2023/06/13 04:59:07;;;;;;;5.85;4.70;;;;;;;18.71;43.51;99830.09;4956291;29;20051;-79
2023/06/13 05:01:34;;;;;;;9.75;4.93;;;;;;;18.74;43.37;99835.16;4956016;29;20055;-79
2023/06/13 05:06:48;;;;;;;9.20;5.22;;;;;;;18.85;43.81;99839.53;5020710;23;20054;-75
2023/06/13 05:09:16;;;;;;;6.13;4.90;;;;;;;18.91;43.78;99840.78;4975288;28;20054;-75
2023/06/13 05:11:43;;;;;;;6.53;4.70;;;;;;;18.96;43.36;99844.72;4975055;28;20085;-75
2023/06/13 05:14:09;;;;;;;12.15;5.25;;;;;;;19.02;43.22;99838.81;4975100;28;20055;-76
2023/06/13 05:16:36;;;;;;;12.13;5.20;;;;;;;19.10;43.09;99846.16;4974431;28;20062;-76
2023/06/13 05:19:05;;;;;;;6.53;4.82;;;;;;;19.17;43.47;99846.44;4974982;28;20086;-76
2023/06/13 05:21:32;;;;;;;6.10;5.50;;;;;;;19.24;43.53;99836.88;4975083;28;20058;-76
2023/06/13 05:23:59;;;;;;;7.43;4.53;;;;;;;19.30;43.34;99842.63;4974802;28;20058;-77
2023/06/13 05:26:27;;;;;;;7.28;5.13;;;;;;;19.35;43.46;99837.69;4974787;28;20054;-76
2023/06/13 05:28:57;;;;;;;6.97;5.18;;;;;;;19.40;42.95;99841.63;4974722;28;20050;-76
2023/06/13 05:31:23;;;;;;;7.13;5.00;;;;;;;19.47;43.06;99849.06;4974703;28;20061;-76
2023/06/13 05:33:50;;;;;;;7.82;4.88;;;;;;;19.52;42.97;99842.28;4974824;28;20062;-77
2023/06/13 05:36:17;;;;;;;8.75;5.47;;;;;;;19.58;42.59;99843.56;4974736;28;20051;-76
2023/06/13 05:38:44;;;;;;;6.55;4.78;;;;;;;19.66;43.01;99840.16;4973076;28;20054;-76
2023/06/13 05:41:10;;;;;;;5.97;4.45;;;;;;;19.70;43.05;99838.88;4974751;28;20149;-76
2023/06/13 05:43:37;;;;;;;8.10;4.68;;;;;;;19.78;43.17;99848.84;4974323;28;20130;-77
2023/06/13 05:46:04;;;;;;;6.35;4.72;;;;;;;19.83;42.61;99849.25;4972024;28;20066;-77
2023/06/13 05:48:30;;;;;;;6.45;4.70;;;;;;;19.89;42.67;99840.66;4974270;28;20101;-77
2023/06/13 05:50:58;;;;;;;7.70;4.93;;;;;;;19.94;42.66;99845.56;4972996;28;20126;-76
2023/06/13 05:53:24;;;;;;;6.90;5.07;;;;;;;20.00;42.71;99842.31;4973891;28;20093;-76
2023/06/13 05:55:51;;;;;;;5.85;4.95;;;;;;;20.05;42.52;99840.06;4988064;28;20070;-77
2023/06/13 05:58:18;;;;;;;6.35;5.25;;;;;;;20.12;42.31;99840.31;4973681;28;20090;-76
2023/06/13 06:00:45;;;;;;;5.47;4.45;;;;;;;20.19;42.74;99851.25;4973678;28;20536;-76
2023/06/13 06:03:13;;;;;;;5.32;4.65;;;;;;;20.26;42.54;99846.97;4974045;28;20507;-76
2023/06/13 06:05:40;;;;;;;5.55;4.60;;;;;;;20.32;42.68;99850.91;4973361;28;20051;-76
2023/06/13 06:08:07;;;;;;;6.45;5.00;;;;;;;20.37;42.24;99848.63;4973921;28;20075;-76
2023/06/13 06:10:33;;;;;;;8.32;5.20;;;;;;;20.44;42.36;99852.38;4972882;28;20055;-76
2023/06/13 06:13:00;;;;;;;7.53;4.68;;;;;;;20.51;42.11;99855.31;4974037;28;20503;-76
2023/06/13 06:15:26;;;;;;;7.90;4.50;;;;;;;20.57;42.20;99843.16;4973943;28;20484;-76
2023/06/13 06:17:53;;;;;;;8.43;5.13;;;;;;;20.63;41.96;99850.56;4974018;28;20153;-77
2023/06/13 06:20:19;;;;;;;7.90;5.25;;;;;;;20.69;42.26;99846.47;4973866;28;20077;-76
2023/06/13 06:22:46;;;;;;;10.15;5.18;;;;;;;;;;4972712;28;20567;-77
2023/06/13 06:25:19;;;;;;;5.88;4.60;;;;;;;20.80;42.30;99854.28;4988566;28;20118;-77
2023/06/13 06:27:50;;;;;;;7.60;4.85;;;;;;;20.88;42.61;99855.34;4973910;28;20068;-76
2023/06/13 06:30:17;;;;;;;14.32;5.07;;;;;;;20.92;42.69;99854.91;4974042;28;20529;-76
2023/06/13 06:32:44;;;;;;;10.93;5.03;;;;;;;20.96;42.78;99856.28;4973645;28;20493;-77
2023/06/13 06:35:11;;;;;;;6.88;4.78;;;;;;;21.01;42.55;99853.13;4973520;28;20058;-76
2023/06/13 06:37:37;;;;;;;7.90;4.97;;;;;;;21.07;42.46;99857.88;4973208;28;20086;-77
2023/06/13 06:40:05;;;;;;;9.65;5.20;;;;;;;21.12;42.53;99859.25;4971825;28;20141;-77
2023/06/13 06:42:31;;;;;;;7.38;5.03;;;;;;;21.16;42.24;99848.06;4972433;28;20509;-76
2023/06/13 06:44:58;;;;;;;5.57;4.97;;;;;;;21.21;41.94;99848.47;4987841;28;20145;-76
2023/06/13 06:47:24;;;;;;;8.45;5.30;;;;;;;21.28;42.60;99850.53;4987774;28;20054;-77
2023/06/13 06:49:51;;;;;;;9.23;5.30;;;;;;;21.33;42.28;99848.22;4973494;28;20057;-76
2023/06/13 06:52:17;;;;;;;6.35;4.80;;;;;;;21.39;42.31;99861.00;4973079;28;20070;-76
2023/06/13 06:54:44;;;;;;;5.25;4.43;;;;;;;21.46;42.16;99848.66;4973167;28;20467;-77
2023/06/13 06:57:10;;;;;;;6.20;4.82;;;;;;;21.55;42.56;99856.75;4972869;28;20058;-77
2023/06/13 06:59:37;;;;;;;8.18;5.05;;;;;;;21.60;42.88;99846.38;4973338;28;20110;-76
2023/06/13 07:02:04;;;;;;;10.85;5.10;;;;;;;21.68;42.65;99850.97;4973205;28;20065;-76
2023/06/13 07:04:32;;;;;;;11.50;5.47;;;;;;;21.74;42.28;99851.22;4973195;28;20054;-76
2023/06/13 07:06:58;;;;;;;8.70;4.43;;;;;;;21.82;42.00;99858.44;4972749;28;20058;-77
2023/06/13 07:09:25;;;;;;;5.35;4.30;;;;;;;21.88;41.98;99854.31;4972782;28;20114;-77
2023/06/13 07:11:53;;;;;;;6.47;5.05;;;;;;;21.94;42.06;99853.66;4973053;28;20055;-78
2023/06/13 07:14:20;;;;;;;7.03;4.75;;;;;;;22.00;42.02;99853.03;4973009;28;20405;-77
2023/06/13 07:16:46;;;;;;;5.63;4.82;;;;;;;22.08;42.21;99848.69;4972631;28;20374;-78
2023/06/13 07:19:13;;;;;;;5.05;4.50;;;;;;;22.15;42.04;99849.72;4972709;28;20142;-77
2023/06/13 07:21:40;;;;;;;5.55;4.50;;;;;;;22.23;42.23;99859.63;4972298;28;20555;-77
2023/06/13 07:24:07;;;;;;;5.80;4.57;;;;;;;22.30;42.04;99859.84;4970028;28;20319;-77
2023/06/13 07:26:35;;;;;;;5.45;4.38;;;;;;;22.37;42.24;99852.81;4969891;28;20090;-78
2023/06/13 07:29:02;;;;;;;9.43;4.57;;;;;;;22.46;42.09;99857.22;4970636;28;20555;-77
2023/06/13 07:31:29;;;;;;;10.10;4.63;;;;;;;22.55;42.00;99863.47;4973467;28;20058;-77
2023/06/13 07:33:56;;;;;;;9.23;4.18;;;;;;;22.63;42.01;99855.47;4972256;28;20117;-77
2023/06/13 07:36:22;;;;;;;8.27;4.70;;;;;;;22.72;41.65;99858.97;4972839;28;20239;-78
2023/06/13 07:38:51;;;;;;;7.32;3.83;;;;;;;22.81;41.49;99862.53;4970958;28;20058;-77
2023/06/13 07:41:18;;;;;;;5.93;3.97;;;;;;;22.91;41.75;99867.72;4971686;28;20423;-77
2023/06/13 07:43:45;;;;;;;5.43;3.83;;;;;;;22.98;41.38;99866.06;4970903;28;20054;-77
2023/06/13 07:46:11;;;;;;;7.97;4.40;;;;;;;23.10;41.06;99868.44;4970920;28;20059;-76
2023/06/13 07:48:38;;;;;;;4.90;4.05;;;;;;;23.18;41.47;99871.13;4970752;28;20137;-77
2023/06/13 07:51:05;;;;;;;8.00;4.25;;;;;;;23.26;41.50;99875.66;4970422;28;20055;-76
2023/06/13 07:53:31;;;;;;;5.20;4.07;;;;;;;23.35;41.21;99869.28;4971026;28;20057;-77
2023/06/13 07:55:58;;;;;;;4.20;3.80;;;;;;;23.45;41.42;99870.97;4971153;28;20093;-76
2023/06/13 07:58:25;;;;;;;6.18;3.97;;;;;;;23.53;40.84;99871.81;4972335;28;20051;-78
2023/06/13 08:00:51;;;;;;;5.60;3.78;;;;;;;23.61;40.65;99860.19;4972168;28;20141;-77
2023/06/13 08:03:17;;;;;;;9.00;4.40;;;;;;;23.70;40.40;99866.41;4972366;28;20141;-77
2023/06/13 08:05:44;;;;;;;7.10;4.13;;;;;;;23.79;40.49;99864.53;4971841;28;20062;-78
2023/06/13 08:08:11;;;;;;;5.97;3.90;;;;;;;23.87;40.82;99867.19;4972442;28;20054;-77
2023/06/13 08:10:37;;;;;;;6.63;3.63;;;;;;;23.98;40.22;99863.31;4971096;28;20069;-78
2023/06/13 08:13:04;;;;;;;4.93;3.70;;;;;;;24.05;39.77;99864.28;4972284;28;20133;-78
2023/06/13 08:15:30;;;;;;;4.60;3.72;;;;;;;24.14;39.76;99867.00;4971983;28;20579;-78
2023/06/13 08:17:57;;;;;;;5.90;3.90;;;;;;;24.24;39.47;99867.59;4971951;28;20061;-77
2023/06/13 08:20:24;;;;;;;5.50;3.97;;;;;;;24.33;39.45;99865.69;4972121;28;20054;-77
2023/06/13 08:22:51;;;;;;;6.07;3.70;;;;;;;24.44;40.07;99867.16;4972087;28;20534;-77
2023/06/13 08:25:18;;;;;;;7.30;4.03;;;;;;;24.52;39.50;99864.44;4970862;28;20059;-77
2023/06/13 08:27:44;;;;;;;7.85;4.20;;;;;;;24.63;40.51;99865.88;4972115;28;20078;-77
2023/06/13 08:30:11;;;;;;;5.30;3.90;;;;;;;24.73;39.64;99861.13;4970951;28;20109;-77
2023/06/13 08:32:41;;;;;;;7.10;3.80;;;;;;;24.84;39.57;99859.06;4971861;28;20086;-77
2023/06/13 08:35:08;;;;;;;7.57;3.83;;;;;;;24.93;39.40;99866.06;4971972;28;20121;-77
2023/06/13 08:37:35;;;;;;;5.68;3.45;;;;;;;25.03;39.04;99860.44;4971941;28;20114;-77
2023/06/13 08:40:04;;;;;;;4.28;3.50;;;;;;;25.12;39.36;99855.84;4971917;28;20051;-77
2023/06/13 08:42:31;;;;;;;6.72;3.85;;;;;;;25.21;38.68;99856.59;4971909;28;20069;-77
2023/06/13 08:44:59;;;;;;;7.63;4.55;;;;;;;25.28;38.85;99852.16;4971731;28;20054;-78
2023/06/13 08:47:26;;;;;;;4.90;3.78;;;;;;;25.37;38.17;99851.06;4971399;28;20499;-77
2023/06/13 08:50:11;;;;;;;7.65;3.90;;;;;;;25.47;38.86;99849.97;4971500;28;20097;-77
2023/06/13 08:52:40;;;;;;;4.45;3.58;;;;;;;25.57;38.69;99855.94;4970695;28;20058;-76
2023/06/13 08:55:13;;;;;;;6.60;3.85;;;;;;;25.64;39.06;99845.25;4971853;28;20055;-77
2023/06/13 08:58:02;;;;;;;8.27;3.67;;;;;;;25.75;38.32;99844.81;4970392;28;20510;-77
2023/06/13 09:00:33;;;;;;;4.50;3.75;;;;;;;25.84;38.27;99848.28;4970868;28;20142;-78
2023/06/13 09:03:03;;;;;;;6.20;3.42;;;;;;;25.93;38.41;99850.88;4973976;28;20054;-77
2023/06/13 09:05:32;;;;;;;4.88;3.72;;;;;;;26.01;38.49;99848.06;4974407;28;20459;-77
2023/06/13 09:07:59;;;;;;;7.35;3.72;;;;;;;26.08;37.36;99851.69;4974459;28;20158;-77
2023/06/13 09:10:47;;;;;;;7.93;3.90;;;;;;;26.19;37.65;99847.66;4973567;28;20670;-77
2023/06/13 09:13:16;;;;;;;6.00;3.10;;;;;;;26.26;37.83;99843.25;4974574;28;20133;-77
2023/06/13 09:15:44;;;;;;;6.43;3.80;;;;;;;26.34;38.03;99844.97;4975236;28;20051;-78
2023/06/13 09:18:11;;;;;;;8.07;3.97;;;;;;;26.44;37.31;99849.22;4974752;28;20051;-76
2023/06/13 09:20:38;;;;;;;7.75;3.67;;;;;;;26.52;37.62;99843.72;4974883;28;20459;-77
2023/06/13 09:23:05;;;;;;;7.80;3.60;;;;;;;26.62;37.48;99846.13;4974221;28;20452;-77
2023/06/13 09:25:35;;;;;;;8.50;3.80;;;;;;;26.70;37.28;99847.84;4973607;28;20082;-77
2023/06/13 09:28:28;;;;;;;7.80;3.53;;;;;;;26.75;37.55;99845.41;4989595;28;20054;-76
2023/06/13 09:30:56;;;;;;;4.07;3.67;;;;;;;26.89;37.10;99839.13;4974566;28;20574;-76
2023/06/13 09:33:23;;;;;;;5.35;3.38;;;;;;;26.98;36.92;99845.25;4973485;28;20055;-76
2023/06/13 09:35:50;;;;;;;4.95;3.35;;;;;;;27.06;36.52;99844.31;4974857;28;20058;-76
2023/06/13 09:38:24;;;;;;;7.55;3.72;;;;;;;27.14;35.13;99848.72;4974636;28;20558;-77
2023/06/13 09:40:57;;;;;;;5.68;3.30;;;;;;;27.21;35.27;99841.50;4962262;28;20051;-76
2023/06/13 09:43:24;;;;;;;;;;;;;;;27.29;36.65;99849.47;4973754;28;20047;-77
2023/06/13 09:45:51;;;;;;;4.88;3.42;;;;;;;27.43;35.20;99847.69;4978926;28;19929;-77
2023/06/13 09:48:18;;;;;;;4.15;3.33;;;;;;;27.50;35.55;99844.22;4953888;29;20515;-77
2023/06/13 09:50:44;;;;;;;4.13;3.58;;;;;;;27.54;36.28;99838.22;4955275;28;20055;-77
2023/06/13 09:53:12;;;;;;;7.88;3.38;;;;;;;27.60;36.29;99836.59;4955250;28;20059;-77
2023/06/13 09:55:39;;;;;;;3.58;3.28;;;;;;;27.67;36.03;99826.69;4954894;28;20113;-77
2023/06/13 09:58:06;;;;;;;6.20;3.47;;;;;;;27.75;34.87;99828.38;4962804;28;20051;-77
2023/06/13 10:00:59;;;;;;;3.20;2.90;;;;;;;27.83;35.58;99824.69;4973041;28;20050;-77
2023/06/13 10:03:28;;;;;;;4.85;3.20;;;;;;;27.91;35.33;99823.66;4974473;28;20051;-78
2023/06/13 10:05:59;;;;;;;4.30;3.53;;;;;;;27.99;34.69;99819.97;4974020;28;20080;-77
2023/06/13 10:08:26;;;;;;;3.88;3.08;;;;;;;28.07;34.42;99812.50;4974027;28;20051;-78
2023/06/13 10:10:54;;;;;;;3.47;3.17;;;;;;;28.15;33.51;99810.69;4974276;28;20090;-77
2023/06/13 10:13:29;;;;;;;3.65;3.35;;;;;;;28.20;34.00;99814.44;4961299;28;20531;-78
2023/06/13 10:15:58;;;;;;;3.95;3.20;;;;;;;28.29;35.30;99804.28;4988613;28;20107;-78
2023/06/13 10:18:31;;;;;;;3.95;2.95;;;;;;;28.35;34.31;99797.25;4972771;28;20182;-78
2023/06/13 10:20:59;;;;;;;4.40;3.30;;;;;;;28.46;33.46;99803.94;4973774;28;20051;-78
2023/06/13 10:23:28;;;;;;;4.10;3.00;;;;;;;28.54;33.28;99805.59;4974043;28;20054;-78
2023/06/13 10:25:58;;;;;;;6.18;3.17;;;;;;;28.62;34.08;99794.56;4973630;28;20097;-76
2023/06/13 10:28:57;;;;;;;7.72;3.03;;;;;;;28.71;33.65;99795.22;4973694;28;20133;-77
2023/06/13 10:31:43;;;;;;;4.43;2.78;;;;;;;28.82;32.57;99794.59;4973602;28;20061;-77
2023/06/13 10:34:16;;;;;;;4.60;3.03;;;;;;;28.96;32.07;99798.19;4972823;28;20047;-78
2023/06/13 10:37:10;;;;;;;6.60;3.38;;;;;;;29.05;32.73;99792.56;4973248;28;20492;-77
2023/06/13 10:40:07;;;;;;;4.63;3.25;;;;;;;29.21;31.92;99796.72;4973476;28;20062;-77
2023/06/13 10:43:00;;;;;;;3.88;3.13;;;;;;;29.42;31.86;99795.66;4973604;28;20133;-77
2023/06/13 10:45:27;;;;;;;;;;;;;;;29.67;33.26;99794.97;4963066;28;20061;-77
2023/06/13 10:47:53;;;;;;;4.45;2.78;;;;;;;30.03;31.38;99788.19;4973083;28;20375;-77
2023/06/13 10:50:21;;;;;;;7.95;3.28;;;;;;;30.38;31.43;99795.13;4973304;28;20058;-77
2023/06/13 10:52:49;;;;;;;4.72;3.08;;;;;;;30.79;30.94;99784.84;4973619;28;20059;-77
2023/06/13 10:55:26;;;;;;;5.03;3.00;;;;;;;31.28;29.74;99796.97;4973320;28;20142;-77
2023/06/13 10:57:56;;;;;;;6.68;2.72;;;;;;;31.80;28.83;99787.66;4971893;28;20055;-77
2023/06/13 11:00:23;;;;;;;3.33;3.00;;;;;;;32.27;28.60;99784.34;4971922;28;20478;-78
2023/06/13 11:02:57;;;;;;;6.30;3.20;;;;;;;32.70;27.17;99781.66;4972962;28;20050;-78
2023/06/13 11:08:40;;;;;;;3.05;2.75;;;;;;;33.58;27.32;99781.00;5064548;23;20061;-79
2023/06/13 11:11:08;;;;;;;4.97;3.17;;;;;;;33.86;26.18;99773.91;4956050;28;20416;-77
2023/06/13 11:13:36;;;;;;;10.13;3.42;;;;;;;34.07;25.83;99766.13;4972808;28;20106;-79
2023/06/13 11:16:34;;;;;;;5.82;2.63;;;;;;;34.22;26.28;99775.69;4973002;28;20145;-76
2023/06/13 11:19:06;;;;;;;5.75;2.90;;;;;;;34.48;25.30;99770.69;4955859;28;20069;-76
2023/06/13 11:21:33;;;;;;;4.55;2.88;;;;;;;34.71;25.23;99761.53;4973026;28;20063;-77
2023/06/13 11:23:59;;;;;;;14.13;3.22;;;;;;;34.94;25.04;99760.53;4972684;28;20058;-76
2023/06/13 11:26:26;;;;;;;5.28;3.00;;;;;;;35.18;24.81;99754.91;4972470;28;20503;-77
2023/06/13 11:28:54;;;;;;;4.50;3.00;;;;;;;35.40;23.73;99750.53;4972766;28;20051;-75
2023/06/13 11:31:20;;;;;;;4.30;2.40;;;;;;;35.59;23.13;99753.78;4972913;28;20058;-78
2023/06/13 11:33:50;;;;;;;3.88;2.70;;;;;;;35.72;23.29;99758.88;4972615;28;20058;-76
2023/06/13 11:36:18;;;;;;;4.03;2.80;;;;;;;35.87;24.40;99746.44;4972622;28;20106;-76
2023/06/13 11:38:57;;;;;;;3.08;2.63;;;;;;;36.04;23.38;99749.09;4971366;28;20054;-77
2023/06/13 11:41:24;;;;;;;2.92;2.63;;;;;;;36.25;23.32;99744.69;4972839;28;20097;-76
2023/06/13 11:43:50;;;;;;;4.40;2.70;;;;;;;36.45;22.86;99748.69;4972627;28;20055;-76
2023/06/13 11:46:17;;;;;;;2.97;2.70;;;;;;;36.67;22.98;99744.22;4972458;28;20074;-76
2023/06/13 11:48:44;;;;;;;2.88;2.58;;;;;;;36.86;22.34;99745.47;4972391;28;20062;-76